Main page
METAR-TAF:

METAR-TAF

Airports :

Tarvisio, Italy

latitude: 46-30N, longitude: 013-35E, elevation: 777 m

Current weather observation

The report was made 1 hour and 3 minutes ago, at 12:55 UTC
Wind 5 kt from the West
Temperature 31°C
Humidity 40%
Pressure 1015 hPa
Visibility 10 km or more
Scattered clouds at a height of 3500 ft

METAR: LIVO 231255Z 28005KT 9999 SCT035 31/16 Q1015 RMK BKN SCT060 VIS MIN 9999

Time: 15:58 (13:58 UTC)


TAF: missing

Weather observations and forecasts of more than 4000 airports (METAR and TAF reports).

The available stations are represented by yellow and red dots on the map.

Hover mouse over dot to see the name of the station.

Then click to see weather observations and forecasts.

To change the map : click on the green buttons with a black cross to zoom in, on the green button with a dash to zoom out, or on the green arrows for adjacent maps.


METAR-TAF: